Santa Maria, Texas
Current Conditions -  °F | °C
As of 10:35 PM on Thursday 18 Dec 2014 (Local Time) from KT65 Reporting Station
Haze Haze  
Wind Chill: 65°   Ceiling: 300
Heat Index: 65°   Visibility: 5mi
Dew Point: 64°   Wind: 0mph
Humidity: 94%   Direction: NA
Pressure: 29.99"   Gusts: NA
Location:  26.08°N, 97.85°W
Report Text: KT65 190435Z AUTO 00000KT 5SM BR BKN003 OVC039 19/18 A2999 RMK AO2 T01850175
Loading
Personal Weather Stations






























Interactive Weather Map New forecast layout! Learn more

10-Day Weather Forecast

Advertisements
Track Severe Weather on mobile